Terminal Aerodrome Forecast
Issued by NWS Miami, FL

Home | Current Version | Previous Version | Text Only | Print | Product List | Glossary On
Versions: 1 2 3 4 5 6 7 8 9 10 11 12 13 14 15 16 17 18 19 20 21 22 23 24 25 26 27
000
FTUS42 KMFL 200247 AAA
TAFFLL
TAF AMD
KFLL 200247Z 2003/2024 28010KT P6SM SCT050
     FM200800 30006KT P6SM SCT040 SCT250
     FM201700 07010KT P6SM SCT025=

USA.gov is the U.S. government's official web portal to all federal, state and local government web resources and services.